createdAt,value
2022-11-17T00:00:29.535Z,5.85
2022-11-17T00:01:29.560Z,5.90
2022-11-17T00:02:29.575Z,5.90
2022-11-17T00:03:29.523Z,5.91
2022-11-17T00:04:29.498Z,5.93
2022-11-17T00:05:29.487Z,5.96
2022-11-17T00:06:29.523Z,5.96
2022-11-17T00:07:29.527Z,5.99
2022-11-17T00:08:29.472Z,5.99
2022-11-17T00:09:29.452Z,6.00
2022-11-17T00:10:29.430Z,6.01
2022-11-17T00:11:29.427Z,6.03
2022-11-17T00:13:54.918Z,6.08
2022-11-17T00:14:41.257Z,6.08
2022-11-17T00:15:41.245Z,6.08
2022-11-17T00:16:41.234Z,6.09
2022-11-17T00:17:41.231Z,6.09
2022-11-17T00:18:41.238Z,6.11
2022-11-17T00:19:41.210Z,6.12
2022-11-17T00:20:41.192Z,6.12
2022-11-17T00:21:41.184Z,6.12
2022-11-17T00:22:41.170Z,6.14
2022-11-17T00:23:41.162Z,6.14
2022-11-17T00:24:41.171Z,6.15
2022-11-17T00:25:41.144Z,6.17
2022-11-17T00:26:47.620Z,6.15
2022-11-17T00:27:41.122Z,6.17
2022-11-17T00:28:41.107Z,6.18
2022-11-17T00:29:41.126Z,6.18
2022-11-17T00:30:43.821Z,6.19
2022-11-17T00:31:41.080Z,6.19
2022-11-17T00:32:41.065Z,6.22
2022-11-17T00:33:41.058Z,6.22
2022-11-17T00:34:41.069Z,6.25
2022-11-17T00:35:41.036Z,6.25
2022-11-17T00:36:41.020Z,6.28
2022-11-17T00:37:41.015Z,6.28
2022-11-17T00:38:41.005Z,6.30
2022-11-17T00:39:41.010Z,6.30
2022-11-17T00:40:40.981Z,6.31
2022-11-17T00:41:40.992Z,6.33
2022-11-17T00:42:40.987Z,6.33
2022-11-17T00:43:40.965Z,6.33
2022-11-17T00:44:40.956Z,6.33
2022-11-17T00:45:40.928Z,6.36
2022-11-17T00:46:40.916Z,6.36
2022-11-17T00:47:40.936Z,6.37
2022-11-17T00:48:40.896Z,6.36
2022-11-17T00:49:40.888Z,6.38
2022-11-17T00:50:40.903Z,6.38
2022-11-17T00:51:40.890Z,6.41
2022-11-17T00:52:40.862Z,6.41
2022-11-17T00:53:40.845Z,6.40
2022-11-17T00:54:40.832Z,6.41
2022-11-17T00:55:40.884Z,6.41
2022-11-17T00:56:40.846Z,6.43
2022-11-17T00:57:40.803Z,6.44
2022-11-17T00:58:40.793Z,6.44
2022-11-17T00:59:40.785Z,6.46
2022-11-17T01:00:40.773Z,6.46
2022-11-17T01:01:40.844Z,6.48
2022-11-17T01:02:40.770Z,6.49
2022-11-17T01:03:40.744Z,6.49
2022-11-17T01:04:40.728Z,6.51
2022-11-17T01:05:40.723Z,6.51
2022-11-17T01:06:40.740Z,6.51
2022-11-17T01:07:40.757Z,6.52
2022-11-17T01:08:40.687Z,6.52
2022-11-17T01:09:40.679Z,6.55
2022-11-17T01:10:40.668Z,6.55
2022-11-17T01:11:40.656Z,6.56
2022-11-17T01:12:40.667Z,6.56
2022-11-17T01:13:40.636Z,6.56
2022-11-17T01:14:40.621Z,6.55
2022-11-17T01:15:40.617Z,6.58
2022-11-17T01:16:40.601Z,6.59
2022-11-17T01:17:40.594Z,6.58
2022-11-17T01:18:40.615Z,6.59
2022-11-17T01:19:40.577Z,6.59
2022-11-17T01:20:40.563Z,6.61
2022-11-17T01:21:40.553Z,6.64
2022-11-17T01:22:40.540Z,6.64
2022-11-17T01:23:40.532Z,6.64
2022-11-17T01:24:40.539Z,6.64
2022-11-17T01:25:40.544Z,6.64
2022-11-17T01:26:40.499Z,6.66
2022-11-17T01:27:40.490Z,6.67
2022-11-17T01:28:40.477Z,6.66
2022-11-17T01:29:40.468Z,6.66
2022-11-17T01:30:40.456Z,6.67
2022-11-17T01:31:40.483Z,6.67
2022-11-17T01:32:40.436Z,6.69
2022-11-17T01:33:40.430Z,6.69
2022-11-17T01:34:40.413Z,6.70
2022-11-17T01:35:40.404Z,6.71
2022-11-17T01:36:40.389Z,6.71
2022-11-17T01:37:40.405Z,6.73
2022-11-17T01:38:40.370Z,6.73
2022-11-17T01:39:40.363Z,6.73
2022-11-17T01:40:40.362Z,6.73
2022-11-17T01:41:40.360Z,6.74
2022-11-17T01:42:40.331Z,6.76
2022-11-17T01:43:40.345Z,6.74
2022-11-17T01:44:40.307Z,6.74
2022-11-17T01:45:40.302Z,6.77
2022-11-17T01:46:40.288Z,6.77
2022-11-17T01:47:40.315Z,6.77
2022-11-17T01:48:40.267Z,6.76
2022-11-17T01:49:40.258Z,6.79
2022-11-17T01:50:40.245Z,6.79
2022-11-17T01:51:40.237Z,6.79
2022-11-17T01:52:40.223Z,6.79
2022-11-17T01:53:40.238Z,6.80
2022-11-17T01:54:40.211Z,6.80
2022-11-17T01:55:40.196Z,6.80
2022-11-17T01:56:40.188Z,6.81
2022-11-17T01:57:40.178Z,6.81
2022-11-17T01:58:40.162Z,6.84
2022-11-17T01:59:40.196Z,6.84
2022-11-17T02:00:40.138Z,6.85
2022-11-17T02:01:40.173Z,6.87
2022-11-17T02:02:40.117Z,6.87
2022-11-17T02:03:40.133Z,6.88
2022-11-17T02:04:40.101Z,6.89
2022-11-17T02:05:40.089Z,6.89
2022-11-17T02:06:40.101Z,6.89
2022-11-17T02:07:40.073Z,6.91
2022-11-17T02:08:40.055Z,6.89
2022-11-17T02:09:40.077Z,6.91
2022-11-17T02:10:40.033Z,6.89
2022-11-17T02:11:40.031Z,6.91
2022-11-17T02:12:40.019Z,6.91
2022-11-17T02:13:40.006Z,6.91
2022-11-17T02:14:39.997Z,6.92
2022-11-17T02:15:40.006Z,6.92
2022-11-17T02:16:39.972Z,6.92
2022-11-17T02:17:39.960Z,6.92
2022-11-17T02:18:39.950Z,6.94
2022-11-17T02:19:39.944Z,6.94
2022-11-17T02:20:39.967Z,6.94
2022-11-17T02:21:39.918Z,6.97
2022-11-17T02:22:39.906Z,6.98
2022-11-17T02:23:39.901Z,6.98
2022-11-17T02:24:39.895Z,6.98
2022-11-17T02:25:39.884Z,6.99
2022-11-17T02:26:39.887Z,6.99
2022-11-17T02:27:39.861Z,7.02
2022-11-17T02:28:39.844Z,7.02
2022-11-17T02:29:39.834Z,7.02
2022-11-17T02:30:39.823Z,7.02
2022-11-17T02:31:39.849Z,7.03
2022-11-17T02:32:39.809Z,7.03
2022-11-17T02:33:39.798Z,7.03
2022-11-17T02:34:39.792Z,7.05
2022-11-17T02:35:39.775Z,7.06
2022-11-17T02:36:39.761Z,7.05
2022-11-17T02:37:39.781Z,7.06
2022-11-17T02:38:39.763Z,7.06
2022-11-17T02:39:39.731Z,7.06
2022-11-17T02:40:39.717Z,7.07
2022-11-17T02:41:39.711Z,7.06
2022-11-17T02:42:39.719Z,7.09
2022-11-17T02:43:39.692Z,7.09
2022-11-17T02:44:39.681Z,7.09
2022-11-17T02:45:39.673Z,7.09
2022-11-17T02:46:39.656Z,7.10
2022-11-17T02:47:39.649Z,7.10
2022-11-17T02:48:39.658Z,7.09
2022-11-17T02:49:39.627Z,7.10
2022-11-17T02:50:39.619Z,7.10
2022-11-17T02:51:39.602Z,7.12
2022-11-17T02:52:39.596Z,7.10
2022-11-17T02:53:39.608Z,7.09
2022-11-17T02:54:39.578Z,7.12
2022-11-17T02:55:39.559Z,7.12
2022-11-17T02:56:39.552Z,7.12
2022-11-17T02:57:39.548Z,7.12
2022-11-17T02:58:39.530Z,7.12
2022-11-17T02:59:39.538Z,7.13
2022-11-17T03:00:39.521Z,7.13
2022-11-17T03:01:39.574Z,7.12
2022-11-17T03:02:39.485Z,7.12
2022-11-17T03:03:39.476Z,7.10
2022-11-17T03:04:39.487Z,7.10
2022-11-17T03:05:39.453Z,7.10
2022-11-17T03:06:39.444Z,7.10
2022-11-17T03:07:39.431Z,7.12
2022-11-17T03:08:39.423Z,7.13
2022-11-17T03:09:39.434Z,7.13
2022-11-17T03:10:39.403Z,7.13
2022-11-17T03:11:39.389Z,7.13
2022-11-17T03:12:39.385Z,7.13
2022-11-17T03:13:39.378Z,7.13
2022-11-17T03:14:39.386Z,7.13
2022-11-17T03:15:39.377Z,7.12
2022-11-17T03:16:39.342Z,7.12
2022-11-17T03:17:39.327Z,7.13
2022-11-17T03:18:39.319Z,7.12
2022-11-17T03:19:39.310Z,7.12
2022-11-17T03:20:39.297Z,7.12
2022-11-17T03:21:39.308Z,7.13
2022-11-17T03:22:39.278Z,7.13
2022-11-17T03:23:39.270Z,7.10
2022-11-17T03:24:39.255Z,7.12
2022-11-17T03:25:39.246Z,7.12
2022-11-17T03:26:39.267Z,7.10
2022-11-17T03:27:39.218Z,7.12
2022-11-17T03:28:39.238Z,7.12
2022-11-17T03:29:39.204Z,7.10
2022-11-17T03:30:39.191Z,7.10
2022-11-17T03:31:39.201Z,7.10
2022-11-17T03:32:39.169Z,7.10
2022-11-17T03:33:39.180Z,7.13
2022-11-17T03:34:39.148Z,7.12
2022-11-17T03:35:39.136Z,7.13
2022-11-17T03:36:39.126Z,7.13
2022-11-17T03:37:39.116Z,7.16
2022-11-17T03:38:39.109Z,7.16
2022-11-17T03:39:39.129Z,7.16
2022-11-17T03:40:39.087Z,7.15
2022-11-17T03:41:39.088Z,7.17
2022-11-17T03:42:39.111Z,7.17
2022-11-17T03:43:39.058Z,7.17
2022-11-17T03:44:39.045Z,7.17
2022-11-17T03:45:39.033Z,7.17
2022-11-17T03:46:39.026Z,7.21
2022-11-17T03:47:39.031Z,7.21
2022-11-17T03:48:39.024Z,7.21
2022-11-17T03:49:38.992Z,7.21
2022-11-17T03:50:38.983Z,7.21
2022-11-17T03:51:38.970Z,7.20
2022-11-17T03:52:38.964Z,7.20
2022-11-17T03:53:39.165Z,7.20
2022-11-17T03:54:38.961Z,7.20
2022-11-17T03:55:38.927Z,7.21
2022-11-17T03:56:38.920Z,7.20
2022-11-17T03:57:38.909Z,7.20
2022-11-17T03:58:38.903Z,7.17
2022-11-17T03:59:38.905Z,7.20
2022-11-17T04:00:38.879Z,7.17
2022-11-17T04:01:38.914Z,7.20
2022-11-17T04:02:38.865Z,7.17
2022-11-17T04:03:39.019Z,7.17
2022-11-17T04:04:38.855Z,7.17
2022-11-17T04:05:38.820Z,7.17
2022-11-17T04:06:38.830Z,7.15
2022-11-17T04:07:38.870Z,7.15
2022-11-17T04:08:38.789Z,7.15
2022-11-17T04:09:38.806Z,7.13
2022-11-17T04:10:38.772Z,7.13
2022-11-17T04:11:38.757Z,7.13
2022-11-17T04:12:38.751Z,7.12
2022-11-17T04:13:38.758Z,7.13
2022-11-17T04:14:38.730Z,7.13
2022-11-17T04:15:38.714Z,7.10
2022-11-17T04:16:38.760Z,7.13
2022-11-17T04:17:38.703Z,7.12
2022-11-17T04:18:38.738Z,7.12
2022-11-17T04:19:38.673Z,7.13
2022-11-17T04:20:38.668Z,7.13
2022-11-17T04:21:38.687Z,7.12
2022-11-17T04:22:38.644Z,7.13
2022-11-17T04:23:38.752Z,7.13
2022-11-17T04:24:38.623Z,7.12
2022-11-17T04:25:38.607Z,7.13
2022-11-17T04:26:38.602Z,7.13
2022-11-17T04:27:38.611Z,7.15
2022-11-17T04:28:38.602Z,7.13
2022-11-17T04:29:38.684Z,7.15
2022-11-17T04:30:38.559Z,7.13
2022-11-17T04:31:38.554Z,7.13
2022-11-17T04:32:38.568Z,7.13
2022-11-17T04:33:38.772Z,7.12
2022-11-17T04:34:38.533Z,7.13
2022-11-17T04:35:38.502Z,7.10
2022-11-17T04:36:38.523Z,7.10
2022-11-17T04:37:38.486Z,7.12
2022-11-17T04:38:38.537Z,7.12
2022-11-17T04:39:38.463Z,7.10
2022-11-17T04:40:38.463Z,7.12
2022-11-17T04:41:38.466Z,7.10
2022-11-17T04:42:38.434Z,7.09
2022-11-17T04:43:38.455Z,7.10
2022-11-17T04:44:38.411Z,7.07
2022-11-17T04:45:38.401Z,7.09
2022-11-17T04:46:38.433Z,7.09
2022-11-17T04:47:38.375Z,7.07
2022-11-17T04:48:38.374Z,7.07
2022-11-17T04:49:38.376Z,7.07
2022-11-17T04:50:38.349Z,7.09
2022-11-17T04:51:38.339Z,7.09
2022-11-17T04:52:38.331Z,7.06
2022-11-17T04:53:38.424Z,7.06
2022-11-17T04:54:38.335Z,7.07
2022-11-17T04:55:38.293Z,7.09
2022-11-17T04:56:38.288Z,7.07
2022-11-17T04:57:38.275Z,7.09
2022-11-17T04:58:38.267Z,7.09
2022-11-17T04:59:38.278Z,7.09
2022-11-17T05:00:38.243Z,7.09
2022-11-17T05:01:38.234Z,7.09
2022-11-17T05:02:38.267Z,7.10
2022-11-17T05:03:38.287Z,7.10
2022-11-17T05:04:38.209Z,7.09
2022-11-17T05:05:38.209Z,7.09
2022-11-17T05:06:38.186Z,7.09
2022-11-17T05:07:38.268Z,7.07
2022-11-17T05:08:38.190Z,7.09
2022-11-17T05:09:38.167Z,7.09
2022-11-17T05:10:38.239Z,7.09
2022-11-17T05:11:38.127Z,7.09
2022-11-17T05:12:38.122Z,7.10
2022-11-17T05:13:38.364Z,7.07
2022-11-17T05:14:38.095Z,7.07
2022-11-17T05:15:38.086Z,7.07
2022-11-17T05:16:38.107Z,7.07
2022-11-17T05:17:38.075Z,7.07
2022-11-17T05:18:38.056Z,7.07
2022-11-17T05:19:38.046Z,7.06
2022-11-17T05:20:38.062Z,7.07
2022-11-17T05:21:38.023Z,7.07
2022-11-17T05:22:38.038Z,7.06
2022-11-17T05:23:38.213Z,7.06
2022-11-17T05:24:37.992Z,7.07
2022-11-17T05:25:37.983Z,7.07
2022-11-17T05:26:37.972Z,7.06
2022-11-17T05:27:37.966Z,7.05
2022-11-17T05:28:37.973Z,7.06
2022-11-17T05:29:37.937Z,7.07
2022-11-17T05:30:38.111Z,7.05
2022-11-17T05:31:37.920Z,7.06
2022-11-17T05:32:37.908Z,7.06
2022-11-17T05:33:38.186Z,7.07
2022-11-17T05:34:37.889Z,7.07
2022-11-17T05:35:37.873Z,7.07
2022-11-17T05:36:37.867Z,7.06
2022-11-17T05:37:37.881Z,7.07
2022-11-17T05:38:37.872Z,7.09
2022-11-17T05:39:37.833Z,7.09
2022-11-17T05:40:37.826Z,7.07
2022-11-17T05:41:37.815Z,7.09
2022-11-17T05:42:37.801Z,7.07
2022-11-17T05:43:37.987Z,7.07
2022-11-17T05:44:37.825Z,7.07
2022-11-17T05:45:37.880Z,7.09
2022-11-17T05:46:37.760Z,7.09
2022-11-17T05:47:37.752Z,7.07
2022-11-17T05:48:37.739Z,7.06
2022-11-17T05:49:37.727Z,7.07
2022-11-17T05:50:37.745Z,7.09
2022-11-17T05:51:37.705Z,7.09
2022-11-17T05:52:37.696Z,7.07
2022-11-17T05:53:37.883Z,7.09
2022-11-17T05:54:37.699Z,7.10
2022-11-17T05:55:37.689Z,7.10
2022-11-17T05:56:37.654Z,7.10
2022-11-17T05:57:37.643Z,7.09
2022-11-17T05:58:37.638Z,7.09
2022-11-17T05:59:37.620Z,7.10
2022-11-17T06:00:37.640Z,7.09
2022-11-17T06:01:37.608Z,7.10
2022-11-17T06:02:37.594Z,7.10
2022-11-17T06:03:37.968Z,7.10
2022-11-17T06:04:37.606Z,7.09
2022-11-17T06:05:37.583Z,7.12
2022-11-17T06:06:37.508Z,7.10
2022-11-17T06:07:37.660Z,7.10
2022-11-17T06:08:37.493Z,7.12
2022-11-17T06:09:37.526Z,7.13
2022-11-17T06:10:37.531Z,7.13
2022-11-17T06:11:37.538Z,7.13
2022-11-17T06:12:37.493Z,7.12
2022-11-17T06:13:37.852Z,7.13
2022-11-17T06:14:37.413Z,7.15
2022-11-17T06:15:37.419Z,7.15
2022-11-17T06:16:37.408Z,7.15
2022-11-17T06:17:37.406Z,7.15
2022-11-17T06:18:37.377Z,7.13
2022-11-17T06:19:37.380Z,7.16
2022-11-17T06:20:37.357Z,7.16
2022-11-17T06:22:04.557Z,7.17
2022-11-17T06:22:37.334Z,7.17
2022-11-17T06:23:37.720Z,7.20
2022-11-17T06:24:37.363Z,7.23
2022-11-17T06:25:37.307Z,7.21
2022-11-17T06:26:37.286Z,7.24
2022-11-17T06:27:43.757Z,7.23
2022-11-17T06:28:37.299Z,7.21
2022-11-17T06:29:42.649Z,7.24
2022-11-17T06:30:37.259Z,7.25
2022-11-17T06:31:37.232Z,7.24
2022-11-17T06:32:37.223Z,7.25
2022-11-17T06:33:37.695Z,7.27
2022-11-17T06:34:37.241Z,7.28
2022-11-17T06:35:37.191Z,7.27
2022-11-17T06:36:37.185Z,7.28
2022-11-17T06:37:37.169Z,7.27
2022-11-17T06:38:37.161Z,7.27
2022-11-17T06:39:37.155Z,7.24
2022-11-17T06:40:37.196Z,7.24
2022-11-17T06:41:37.125Z,7.24
2022-11-17T06:42:37.120Z,7.24
2022-11-17T06:43:37.402Z,7.23
2022-11-17T06:44:37.113Z,7.23
2022-11-17T06:45:37.085Z,7.21
2022-11-17T06:46:37.105Z,7.21
2022-11-17T06:47:37.063Z,7.17
2022-11-17T06:48:37.586Z,7.20
2022-11-17T06:49:37.048Z,7.17
2022-11-17T06:50:37.071Z,7.17
2022-11-17T06:51:40.942Z,7.17
2022-11-17T06:52:37.036Z,7.16
2022-11-17T06:53:37.294Z,7.15
2022-11-17T06:54:37.049Z,7.13
2022-11-17T06:55:37.014Z,7.13
2022-11-17T06:56:37.060Z,7.15
2022-11-17T06:57:36.987Z,7.13
2022-11-17T06:58:37.251Z,7.13
2022-11-17T06:59:36.988Z,7.13
2022-11-17T07:00:37.081Z,7.12
2022-11-17T07:01:36.942Z,7.10
2022-11-17T07:02:36.952Z,7.10
2022-11-17T07:03:37.273Z,7.10
2022-11-17T07:04:36.924Z,7.10
2022-11-17T07:05:37.122Z,7.10
2022-11-17T07:06:36.888Z,7.10
2022-11-17T07:07:36.986Z,7.10
2022-11-17T07:08:37.340Z,7.12
2022-11-17T07:09:36.895Z,7.12
2022-11-17T07:10:36.850Z,7.12
2022-11-17T07:11:36.853Z,7.13
2022-11-17T07:12:36.830Z,7.13
2022-11-17T07:13:36.834Z,7.15
2022-11-17T07:14:36.836Z,7.16
2022-11-17T07:15:36.848Z,7.16
2022-11-17T07:16:36.795Z,7.16
2022-11-17T07:17:36.792Z,7.17
2022-11-17T07:18:37.098Z,7.17
2022-11-17T07:19:36.792Z,7.17
2022-11-17T07:20:36.748Z,7.17
2022-11-17T07:21:36.783Z,7.20
2022-11-17T07:22:36.721Z,7.21
2022-11-17T07:23:36.854Z,7.23
2022-11-17T07:24:36.701Z,7.24
2022-11-17T07:25:36.707Z,7.25
2022-11-17T07:26:36.718Z,7.27
2022-11-17T07:27:36.685Z,7.28
2022-11-17T07:28:37.126Z,7.32
2022-11-17T07:29:36.700Z,7.31
2022-11-17T07:30:36.645Z,7.32
2022-11-17T07:31:36.676Z,7.31
2022-11-17T07:32:36.619Z,7.32
2022-11-17T07:33:36.665Z,7.34
2022-11-17T07:34:36.597Z,7.32
2022-11-17T07:35:36.586Z,7.32
2022-11-17T07:36:36.580Z,7.32
2022-11-17T07:37:36.608Z,7.34
2022-11-17T07:38:36.865Z,7.32
2022-11-17T07:39:36.558Z,7.34
2022-11-17T07:40:36.532Z,7.34
2022-11-17T07:41:36.593Z,7.35
2022-11-17T07:42:36.533Z,7.34
2022-11-17T07:43:36.532Z,7.32
2022-11-17T07:44:36.489Z,7.35
2022-11-17T07:45:36.495Z,7.34
2022-11-17T07:46:36.470Z,7.34
2022-11-17T07:47:36.519Z,7.35
2022-11-17T07:48:36.935Z,7.37
2022-11-17T07:49:36.469Z,7.37
2022-11-17T07:50:36.425Z,7.39
2022-11-17T07:51:36.451Z,7.40
2022-11-17T07:52:41.265Z,7.42
2022-11-17T07:53:36.457Z,7.42
2022-11-17T07:54:36.414Z,7.45
2022-11-17T07:55:36.392Z,7.43
2022-11-17T07:56:36.380Z,7.45
2022-11-17T07:57:36.369Z,7.48
2022-11-17T07:58:36.713Z,7.50
2022-11-17T07:59:36.364Z,7.50
2022-11-17T08:00:36.395Z,7.53
2022-11-17T08:01:36.329Z,7.55
2022-11-17T08:02:36.304Z,7.58
2022-11-17T08:03:36.406Z,7.58
2022-11-17T08:04:36.283Z,7.60
2022-11-17T08:05:41.576Z,7.61
2022-11-17T08:06:36.301Z,7.63
2022-11-17T08:07:36.325Z,7.64
2022-11-17T08:08:36.542Z,7.67
2022-11-17T08:09:36.266Z,7.68
2022-11-17T08:10:36.221Z,7.72
2022-11-17T08:11:36.243Z,7.75
2022-11-17T08:12:36.196Z,7.75
2022-11-17T08:13:36.222Z,7.79
2022-11-17T08:14:36.176Z,7.80
2022-11-17T08:15:36.248Z,7.86
2022-11-17T08:16:36.157Z,7.87
2022-11-17T08:17:36.174Z,7.89
2022-11-17T08:18:36.888Z,7.92
2022-11-17T08:19:36.168Z,7.93
2022-11-17T08:20:36.150Z,7.92
2022-11-17T08:21:36.119Z,7.92
2022-11-17T08:22:36.092Z,7.95
2022-11-17T08:23:36.098Z,7.93
2022-11-17T08:24:36.071Z,7.97
2022-11-17T08:25:36.091Z,8.01
2022-11-17T08:26:36.075Z,8.00
2022-11-17T08:27:36.070Z,7.98
2022-11-17T08:28:36.414Z,7.98
2022-11-17T08:29:36.033Z,7.98
2022-11-17T08:30:36.004Z,7.97
2022-11-17T08:31:36.041Z,7.93
2022-11-17T08:32:34.979Z,7.93
2022-11-17T08:33:36.018Z,7.89
2022-11-17T08:34:35.967Z,7.87
2022-11-17T08:35:37.754Z,7.89
2022-11-17T08:36:35.985Z,7.86
2022-11-17T08:37:35.971Z,7.85
2022-11-17T08:38:36.187Z,7.85
2022-11-17T08:39:35.937Z,7.86
2022-11-17T08:40:35.906Z,7.86
2022-11-17T08:41:35.910Z,7.87
2022-11-17T08:42:35.906Z,7.90
2022-11-17T08:43:35.891Z,7.95
2022-11-17T08:44:35.862Z,8.00
2022-11-17T08:45:35.875Z,8.04
2022-11-17T08:46:36.092Z,8.05
2022-11-17T08:47:35.889Z,8.08
2022-11-17T08:48:36.201Z,8.11
2022-11-17T08:49:35.848Z,8.12
2022-11-17T08:50:35.822Z,8.15
2022-11-17T08:51:35.814Z,8.18
2022-11-17T08:52:35.790Z,8.20
2022-11-17T08:53:35.824Z,8.23
2022-11-17T08:54:35.757Z,8.23
2022-11-17T08:55:40.769Z,8.23
2022-11-17T08:56:35.767Z,8.23
2022-11-17T08:57:35.768Z,8.23
2022-11-17T08:58:36.076Z,8.22
2022-11-17T08:59:35.714Z,8.22
2022-11-17T09:00:35.766Z,8.25
2022-11-17T09:01:35.707Z,8.25
2022-11-17T09:02:35.719Z,8.25
2022-11-17T09:03:35.670Z,8.26
2022-11-17T09:04:35.679Z,8.28
2022-11-17T09:05:35.634Z,8.29
2022-11-17T09:06:35.682Z,8.29
2022-11-17T09:07:35.788Z,8.34
2022-11-17T09:08:45.644Z,8.37
2022-11-17T09:09:35.724Z,8.38
2022-11-17T09:10:35.573Z,8.43
2022-11-17T09:11:35.592Z,8.44
2022-11-17T09:12:35.547Z,8.43
2022-11-17T09:13:35.561Z,8.44
2022-11-17T09:14:35.524Z,8.45
2022-11-17T09:15:35.568Z,8.48
2022-11-17T09:16:35.522Z,8.47
2022-11-17T09:17:35.535Z,8.48
2022-11-17T09:18:35.782Z,8.53
2022-11-17T09:19:35.543Z,8.55
2022-11-17T09:20:35.463Z,8.56
2022-11-17T09:21:35.487Z,8.56
2022-11-17T09:22:35.440Z,8.58
2022-11-17T09:23:35.894Z,8.58
2022-11-17T09:24:35.433Z,8.58
2022-11-17T09:25:35.439Z,8.61
2022-11-17T09:26:35.403Z,8.62
2022-11-17T09:27:35.432Z,8.65
2022-11-17T09:28:35.827Z,8.68
2022-11-17T09:29:35.406Z,8.68
2022-11-17T09:30:35.360Z,8.70
2022-11-17T09:31:35.492Z,8.70
2022-11-17T09:32:35.360Z,8.70
2022-11-17T09:33:35.358Z,8.66
2022-11-17T09:34:35.464Z,8.65
2022-11-17T09:35:35.335Z,8.66
2022-11-17T09:36:35.294Z,8.68
2022-11-17T09:37:35.336Z,8.70
2022-11-17T09:38:35.710Z,8.74
2022-11-17T09:39:35.291Z,8.77
2022-11-17T09:40:37.967Z,8.79
2022-11-17T09:41:35.277Z,8.80
2022-11-17T09:42:35.262Z,8.77
2022-11-17T09:43:35.242Z,8.79
2022-11-17T09:44:35.217Z,8.83
2022-11-17T09:45:35.219Z,8.86
2022-11-17T09:46:35.189Z,8.89
2022-11-17T09:47:35.194Z,8.91
2022-11-17T09:48:41.197Z,8.96
2022-11-17T09:49:35.195Z,8.96
2022-11-17T09:50:35.149Z,8.96
2022-11-17T09:51:35.178Z,8.96
2022-11-17T09:52:35.128Z,8.99
2022-11-17T09:53:35.481Z,8.98
2022-11-17T09:54:35.112Z,8.98
2022-11-17T09:55:35.148Z,8.95
2022-11-17T09:56:35.078Z,8.96
2022-11-17T09:57:35.105Z,8.96
2022-11-17T09:58:35.315Z,8.94
2022-11-17T09:59:35.068Z,8.95
2022-11-17T10:00:35.040Z,8.99
2022-11-17T10:01:35.050Z,8.98
2022-11-17T10:02:35.081Z,9.02
2022-11-17T10:03:40.057Z,9.01
2022-11-17T10:04:35.009Z,8.98
2022-11-17T10:05:35.020Z,8.98
2022-11-17T10:06:34.980Z,8.96
2022-11-17T10:07:35.050Z,8.94
2022-11-17T10:08:34.984Z,8.95
2022-11-17T10:09:34.958Z,8.95
2022-11-17T10:10:34.973Z,8.96
2022-11-17T10:11:34.975Z,8.98
2022-11-17T10:12:34.915Z,9.02
2022-11-17T10:13:35.246Z,9.05
2022-11-17T10:14:34.893Z,9.10
2022-11-17T10:15:34.899Z,9.11
2022-11-17T10:16:34.901Z,9.15
2022-11-17T10:17:34.882Z,9.21
2022-11-17T10:18:37.849Z,9.29
2022-11-17T10:19:34.841Z,9.36
2022-11-17T10:20:34.901Z,9.43
2022-11-17T10:21:34.846Z,9.48
2022-11-17T10:22:34.813Z,9.60
2022-11-17T10:23:35.150Z,9.65
2022-11-17T10:24:34.829Z,9.75
2022-11-17T10:25:34.791Z,9.87
2022-11-17T10:26:34.789Z,9.93
2022-11-17T10:27:34.771Z,9.94
2022-11-17T10:28:34.748Z,9.84
2022-11-17T10:29:34.749Z,9.86
2022-11-17T10:30:34.764Z,9.86
2022-11-17T10:31:34.773Z,9.83
2022-11-17T10:32:34.702Z,9.83
2022-11-17T10:33:35.090Z,9.87
2022-11-17T10:34:40.647Z,9.84
2022-11-17T10:35:34.718Z,9.87
2022-11-17T10:36:34.659Z,9.90
2022-11-17T10:37:34.665Z,9.91
2022-11-17T10:38:34.637Z,9.94
2022-11-17T10:39:34.628Z,9.89
2022-11-17T10:40:34.617Z,9.90
2022-11-17T10:41:34.642Z,9.90
2022-11-17T10:42:34.594Z,9.79
2022-11-17T10:43:35.065Z,9.78
2022-11-17T10:44:34.576Z,9.72
2022-11-17T10:45:34.595Z,9.68
2022-11-17T10:46:44.952Z,9.61
2022-11-17T10:47:34.576Z,9.57
2022-11-17T10:48:34.560Z,9.56
2022-11-17T10:49:34.540Z,9.53
2022-11-17T10:50:34.512Z,9.48
2022-11-17T10:51:34.532Z,9.48
2022-11-17T10:52:34.488Z,9.47
2022-11-17T10:53:39.459Z,9.46
2022-11-17T10:54:34.496Z,9.43
2022-11-17T10:55:34.469Z,9.42
2022-11-17T10:56:34.447Z,9.40
2022-11-17T10:57:34.452Z,9.36
2022-11-17T10:58:34.424Z,9.33
2022-11-17T10:59:34.465Z,9.32
2022-11-17T11:00:34.412Z,9.32
2022-11-17T11:01:34.474Z,9.31
2022-11-17T11:02:34.406Z,9.33
2022-11-17T11:03:34.799Z,9.42
2022-11-17T11:04:34.360Z,9.51
2022-11-17T11:05:34.370Z,9.58
2022-11-17T11:06:34.341Z,9.66
2022-11-17T11:07:34.362Z,9.74
2022-11-17T11:08:34.343Z,9.81
2022-11-17T11:09:34.326Z,9.89
2022-11-17T11:10:34.329Z,10.15
2022-11-17T11:11:36.452Z,10.38
2022-11-17T11:12:34.280Z,10.78
2022-11-17T11:13:34.317Z,10.99
2022-11-17T11:14:34.257Z,11.00
2022-11-17T11:15:34.267Z,11.46
2022-11-17T11:16:34.236Z,11.61
2022-11-17T11:17:34.255Z,11.65
2022-11-17T11:18:35.239Z,11.46
2022-11-17T11:19:34.218Z,11.27
2022-11-17T11:20:34.224Z,11.15
2022-11-17T11:21:34.220Z,11.09
2022-11-17T11:22:34.191Z,10.99
2022-11-17T11:23:34.164Z,10.91
2022-11-17T11:24:34.182Z,10.74
2022-11-17T11:25:34.144Z,10.63
2022-11-17T11:26:34.181Z,10.60
2022-11-17T11:27:34.124Z,10.60
2022-11-17T11:28:34.148Z,10.59
2022-11-17T11:29:34.105Z,10.59
2022-11-17T11:30:34.114Z,10.63
2022-11-17T11:31:34.118Z,10.61
2022-11-17T11:32:34.097Z,10.55
2022-11-17T11:33:34.079Z,10.52
2022-11-17T11:34:34.054Z,10.51
2022-11-17T11:35:34.038Z,10.55
2022-11-17T11:36:34.051Z,10.52
2022-11-17T11:37:34.073Z,10.59
2022-11-17T11:38:34.040Z,10.63
2022-11-17T11:39:33.988Z,10.68
2022-11-17T11:40:33.993Z,10.81
2022-11-17T11:41:33.994Z,10.88
2022-11-17T11:42:33.987Z,11.07
2022-11-17T11:43:33.978Z,11.19
2022-11-17T11:44:33.955Z,11.47
2022-11-17T11:45:33.972Z,11.57
2022-11-17T11:46:33.946Z,11.76
2022-11-17T11:47:33.907Z,11.76
2022-11-17T11:48:34.817Z,11.73
2022-11-17T11:49:33.895Z,11.76
2022-11-17T11:50:38.986Z,11.73
2022-11-17T11:51:33.993Z,11.69
2022-11-17T11:52:33.891Z,11.58
2022-11-17T11:53:33.843Z,11.47
2022-11-17T11:54:33.876Z,11.44
2022-11-17T11:55:33.875Z,11.37
2022-11-17T11:56:33.823Z,11.32
2022-11-17T11:57:33.797Z,11.28
2022-11-17T11:58:33.820Z,11.24
2022-11-17T11:59:33.815Z,11.61
2022-11-17T12:00:33.780Z,12.37
2022-11-17T12:01:33.756Z,12.95
2022-11-17T12:02:33.808Z,13.49
2022-11-17T12:03:33.801Z,13.55
2022-11-17T12:04:33.753Z,13.89
2022-11-17T12:05:33.740Z,13.88
2022-11-17T12:06:33.734Z,14.21
2022-11-17T12:07:33.715Z,14.69
2022-11-17T12:08:33.701Z,15.14
2022-11-17T12:09:33.675Z,15.44
2022-11-17T12:10:33.721Z,15.84
2022-11-17T12:11:33.653Z,15.90
2022-11-17T12:12:33.674Z,15.96
2022-11-17T12:13:33.635Z,16.14
2022-11-17T12:14:33.647Z,16.46
2022-11-17T12:15:33.630Z,15.89
2022-11-17T12:16:33.683Z,15.44
2022-11-17T12:17:33.609Z,14.89
2022-11-17T12:18:33.613Z,14.33
2022-11-17T12:19:33.567Z,14.06
2022-11-17T12:20:33.583Z,13.77
2022-11-17T12:21:33.543Z,13.67
2022-11-17T12:22:33.563Z,13.51
2022-11-17T12:23:33.545Z,13.32
2022-11-17T12:24:33.527Z,13.29
2022-11-17T12:25:33.505Z,13.22
2022-11-17T12:26:33.523Z,13.12
2022-11-17T12:27:33.484Z,13.01
2022-11-17T12:28:40.166Z,12.93
2022-11-17T12:29:33.463Z,12.77
2022-11-17T12:30:33.464Z,12.75
2022-11-17T12:31:33.438Z,12.67
2022-11-17T12:32:33.459Z,12.60
2022-11-17T12:33:33.438Z,12.56
2022-11-17T12:34:33.426Z,12.37
2022-11-17T12:35:33.403Z,12.32
2022-11-17T12:36:33.405Z,12.31
2022-11-17T12:37:33.382Z,12.31
2022-11-17T12:38:33.443Z,12.29
2022-11-17T12:39:33.361Z,12.29
2022-11-17T12:40:33.368Z,12.37
2022-11-17T12:41:33.337Z,12.45
2022-11-17T12:42:33.361Z,12.49
2022-11-17T12:43:33.317Z,12.57
2022-11-17T12:44:33.367Z,12.65
2022-11-17T12:45:37.546Z,12.78
2022-11-17T12:46:33.328Z,12.71
2022-11-17T12:47:33.279Z,12.60
2022-11-17T12:48:34.756Z,12.68
2022-11-17T12:49:33.256Z,12.59
2022-11-17T12:50:33.280Z,12.56
2022-11-17T12:51:33.232Z,12.56
2022-11-17T12:52:33.247Z,12.46
2022-11-17T12:53:33.213Z,12.34
2022-11-17T12:54:33.222Z,12.27
2022-11-17T12:55:33.205Z,12.19
2022-11-17T12:56:33.208Z,12.12
2022-11-17T12:57:33.168Z,12.04
2022-11-17T12:58:33.194Z,12.01
2022-11-17T12:59:33.147Z,11.96
2022-11-17T13:00:33.201Z,11.94
2022-11-17T13:01:33.146Z,11.86
2022-11-17T13:02:33.143Z,11.83
2022-11-17T13:03:33.106Z,11.80
2022-11-17T13:04:33.114Z,11.70
2022-11-17T13:05:33.086Z,11.60
2022-11-17T13:06:35.850Z,11.46
2022-11-17T13:07:33.084Z,11.29
2022-11-17T13:08:33.088Z,11.03
2022-11-17T13:09:33.038Z,10.84
2022-11-17T13:10:33.070Z,10.61
2022-11-17T13:11:33.074Z,10.47
2022-11-17T13:12:33.039Z,10.33
2022-11-17T13:13:36.797Z,10.22
2022-11-17T13:14:33.001Z,10.04
2022-11-17T13:15:32.976Z,9.97